createdAt,value
2022-09-20T00:04:49.969Z,1.70
2022-09-20T00:09:51.434Z,1.27
2022-09-20T00:14:52.852Z,1.52
2022-09-20T00:19:54.290Z,1.65
2022-09-20T00:24:55.710Z,1.48
2022-09-20T00:29:58.766Z,1.73
2022-09-20T00:35:10.645Z,1.60
2022-09-20T00:40:17.420Z,1.70
2022-09-20T00:45:25.229Z,1.50
2022-09-20T00:50:36.808Z,1.70
2022-09-20T00:55:43.327Z,1.77
2022-09-20T01:00:46.783Z,1.67
2022-09-20T01:05:50.466Z,1.58
2022-09-20T01:10:52.955Z,1.70
2022-09-20T01:15:56.305Z,1.50
2022-09-20T01:20:59.139Z,1.50
2022-09-20T01:26:28.739Z,1.70
2022-09-20T01:31:36.417Z,1.48
2022-09-20T01:36:54.234Z,1.80
2022-09-20T01:42:02.040Z,1.67
2022-09-20T01:47:30.078Z,1.20
2022-09-20T01:53:03.380Z,1.40
2022-09-20T01:58:32.559Z,1.15
2022-09-20T02:08:56.624Z,1.35
2022-09-20T02:14:08.180Z,1.15
2022-09-20T02:19:21.791Z,1.27
2022-09-20T02:24:33.712Z,1.40
2022-09-20T02:29:53.628Z,1.27
2022-09-20T02:35:13.551Z,1.65
2022-09-20T02:40:27.392Z,1.70
2022-09-20T02:45:43.065Z,1.67
2022-09-20T02:51:26.472Z,1.85
2022-09-20T02:56:46.800Z,1.60
2022-09-20T03:02:03.637Z,2.13
2022-09-20T03:07:37.155Z,2.50
2022-09-20T03:13:14.541Z,2.35
2022-09-20T03:18:29.297Z,4.93
2022-09-20T03:24:01.827Z,7.03
2022-09-20T03:29:37.133Z,4.18
2022-09-20T03:35:00.182Z,4.13
2022-09-20T03:40:26.069Z,1.88
2022-09-20T03:45:40.265Z,1.38
2022-09-20T03:50:41.651Z,1.60
2022-09-20T03:56:08.142Z,1.33
2022-09-20T04:01:29.848Z,1.30
2022-09-20T04:06:59.198Z,1.63
2022-09-20T04:12:24.314Z,1.60
2022-09-20T04:17:45.203Z,1.65
2022-09-20T04:22:51.410Z,1.98
2022-09-20T04:28:02.779Z,2.20
2022-09-20T04:33:26.574Z,2.40
2022-09-20T04:38:28.465Z,2.53
2022-09-20T04:43:52.298Z,2.60
2022-09-20T04:49:16.748Z,2.80
2022-09-20T04:54:18.089Z,2.55
2022-09-20T04:59:38.571Z,4.00
2022-09-20T05:05:10.670Z,4.15
2022-09-20T05:10:15.415Z,4.88
2022-09-20T05:15:47.528Z,4.63
2022-09-20T05:20:51.660Z,4.93
2022-09-20T05:26:39.035Z,4.60
2022-09-20T05:32:08.541Z,4.53
2022-09-20T05:37:44.241Z,4.45
2022-09-20T05:43:11.239Z,3.88
2022-09-20T05:48:46.836Z,4.00
2022-09-20T05:54:10.035Z,3.97
2022-09-20T05:59:38.571Z,4.35
2022-09-20T06:04:52.634Z,4.77
2022-09-20T06:10:09.300Z,4.32
2022-09-20T06:15:26.411Z,4.05
2022-09-20T06:20:39.467Z,3.78
2022-09-20T06:25:53.663Z,4.25
2022-09-20T06:30:57.222Z,3.83
2022-09-20T06:36:40.715Z,4.53
2022-09-20T06:41:43.136Z,4.07
2022-09-20T06:46:44.587Z,3.80
2022-09-20T06:51:46.849Z,3.47
2022-09-20T06:56:50.428Z,4.05
2022-09-20T07:01:52.325Z,3.67
2022-09-20T07:07:00.913Z,3.80
2022-09-20T07:12:02.570Z,3.20
2022-09-20T07:17:04.318Z,3.40
2022-09-20T07:22:05.761Z,4.20
2022-09-20T07:27:07.231Z,3.78
2022-09-20T07:32:08.692Z,3.67
2022-09-20T07:37:10.118Z,4.10
2022-09-20T07:42:12.473Z,3.03
2022-09-20T07:47:15.049Z,3.25
2022-09-20T07:52:17.552Z,3.42
2022-09-20T07:57:19.085Z,3.95
2022-09-20T08:02:20.589Z,3.72
2022-09-20T08:07:22.086Z,3.65
2022-09-20T08:17:47.362Z,3.45
2022-09-20T08:23:06.309Z,3.00
2022-09-20T08:28:10.145Z,3.33
2022-09-20T08:33:12.892Z,3.70
2022-09-20T08:43:39.762Z,3.38
2022-09-20T08:48:41.811Z,3.28
2022-09-20T08:53:49.234Z,2.95
2022-09-20T08:58:51.056Z,2.65
2022-09-20T09:03:59.230Z,2.85
2022-09-20T09:09:00.766Z,2.80
2022-09-20T09:14:27.213Z,2.70
2022-09-20T09:19:34.543Z,2.70
2022-09-20T09:24:36.041Z,3.15
2022-09-20T09:29:49.491Z,3.05
2022-09-20T09:34:51.259Z,2.90
2022-09-20T09:40:19.268Z,2.80
2022-09-20T09:45:36.066Z,2.72
2022-09-20T09:50:37.614Z,2.83
2022-09-20T09:55:53.615Z,3.78
2022-09-20T10:00:58.349Z,3.40
2022-09-20T10:06:21.466Z,3.65
2022-09-20T10:11:42.013Z,2.80
2022-09-20T10:17:11.125Z,2.47
2022-09-20T10:23:06.827Z,3.03
2022-09-20T10:28:25.147Z,2.78
2022-09-20T10:33:38.272Z,2.47
2022-09-20T10:38:50.468Z,2.83
2022-09-20T10:44:05.149Z,2.55
2022-09-20T10:49:43.064Z,2.28
2022-09-20T10:54:58.636Z,1.95
2022-09-20T11:00:18.936Z,2.10
2022-09-20T11:05:29.840Z,1.77
2022-09-20T11:10:42.993Z,1.88
2022-09-20T11:15:59.654Z,1.52
2022-09-20T11:21:24.416Z,1.95
2022-09-20T11:26:36.891Z,1.98
2022-09-20T11:31:43.409Z,2.20
2022-09-20T11:36:58.824Z,2.03
2022-09-20T11:42:02.219Z,1.88
2022-09-20T11:47:06.638Z,1.58
2022-09-20T11:52:37.205Z,1.90
2022-09-20T11:57:39.553Z,1.17
2022-09-20T12:02:53.434Z,1.40
2022-09-20T12:07:58.352Z,1.00
2022-09-20T12:13:08.445Z,1.30
2022-09-20T12:18:27.408Z,0.73
2022-09-20T12:28:44.685Z,1.67
2022-09-20T12:33:59.244Z,1.20
2022-09-20T12:39:16.233Z,1.50
2022-09-20T12:44:23.755Z,1.83
2022-09-20T12:49:52.447Z,2.10
2022-09-20T12:54:56.369Z,2.00
2022-09-20T13:00:02.024Z,2.40
2022-09-20T13:05:03.615Z,2.47
2022-09-20T13:10:18.173Z,1.85
2022-09-20T13:15:21.830Z,2.05
2022-09-20T13:20:34.680Z,2.63
2022-09-20T13:25:39.112Z,2.00
2022-09-20T13:30:42.323Z,1.77
2022-09-20T13:35:48.277Z,1.60
2022-09-20T13:40:51.589Z,2.00
2022-09-20T13:45:58.976Z,2.10
2022-09-20T13:51:00.672Z,1.80
2022-09-20T13:56:11.623Z,1.90
2022-09-20T14:01:29.223Z,2.42
2022-09-20T14:06:31.877Z,1.60
2022-09-20T14:11:34.026Z,1.83
2022-09-20T14:16:40.965Z,1.77
2022-09-20T14:21:43.814Z,2.10
2022-09-20T14:27:02.170Z,1.83
2022-09-20T14:32:11.012Z,1.70
2022-09-20T14:37:22.290Z,1.50
2022-09-20T14:42:31.392Z,2.00
2022-09-20T14:52:43.672Z,2.30
2022-09-20T14:57:47.105Z,1.83
2022-09-20T15:02:48.578Z,2.20
2022-09-20T15:07:50.380Z,2.00
2022-09-20T15:12:51.849Z,1.95
2022-09-20T15:17:53.323Z,1.83
2022-09-20T15:22:56.366Z,2.40
2022-09-20T15:27:59.124Z,2.08
2022-09-20T15:33:03.068Z,2.40
2022-09-20T15:38:05.637Z,2.38
2022-09-20T15:43:09.457Z,1.65
2022-09-20T15:48:11.480Z,1.30
2022-09-20T15:53:12.973Z,1.63
2022-09-20T15:58:14.864Z,1.20
2022-09-20T16:03:17.490Z,1.75
2022-09-20T16:08:19.191Z,1.63
2022-09-20T16:13:20.698Z,1.83
2022-09-20T16:18:40.896Z,1.45
2022-09-20T16:23:46.785Z,1.55
2022-09-20T16:28:49.194Z,1.65
2022-09-20T16:33:50.616Z,1.80
2022-09-20T16:38:55.285Z,2.10
2022-09-20T16:43:56.906Z,2.30
2022-09-20T16:49:01.025Z,1.90
2022-09-20T16:54:07.627Z,2.10
2022-09-20T16:59:10.698Z,2.10
2022-09-20T17:04:14.301Z,1.95
2022-09-20T17:09:16.510Z,2.30
2022-09-20T17:14:20.367Z,1.83
2022-09-20T17:19:21.875Z,2.15
2022-09-20T17:24:24.811Z,1.75
2022-09-20T17:29:27.609Z,1.80
2022-09-20T17:34:29.979Z,2.30
2022-09-20T17:39:31.442Z,5.00
2022-09-20T17:44:37.545Z,4.15
2022-09-20T17:49:40.633Z,3.47
2022-09-20T17:54:42.169Z,3.40
2022-09-20T17:59:43.689Z,2.97
2022-09-20T18:04:45.349Z,2.42
2022-09-20T18:09:47.233Z,2.40
2022-09-20T18:14:48.636Z,2.72
2022-09-20T18:19:50.030Z,2.50
2022-09-20T18:24:51.487Z,2.58
2022-09-20T18:29:52.903Z,2.10
2022-09-20T18:34:54.303Z,2.30
2022-09-20T18:39:55.734Z,2.17
2022-09-20T18:44:58.572Z,2.45
2022-09-20T18:49:59.966Z,2.38
2022-09-20T18:55:06.117Z,2.50
2022-09-20T19:00:09.402Z,2.60
2022-09-20T19:05:21.079Z,2.60
2022-09-20T19:10:59.173Z,3.05
2022-09-20T19:16:15.440Z,2.85
2022-09-20T19:21:26.154Z,3.03
2022-09-20T19:26:29.877Z,3.63
2022-09-20T19:31:33.826Z,3.58
2022-09-20T19:36:57.237Z,4.35
2022-09-20T19:42:24.471Z,4.22
2022-09-20T19:47:45.735Z,3.90
2022-09-20T19:52:47.436Z,4.05
2022-09-20T19:57:49.311Z,4.40
2022-09-20T20:02:51.074Z,4.28
2022-09-20T20:08:04.646Z,4.00
2022-09-20T20:13:25.970Z,3.90
2022-09-20T20:18:40.562Z,3.85
2022-09-20T20:24:20.600Z,3.83
2022-09-20T20:29:22.106Z,3.25
2022-09-20T20:34:24.400Z,3.10
2022-09-20T20:39:27.080Z,3.30
2022-09-20T20:44:34.982Z,3.35
2022-09-20T20:49:36.504Z,3.45
2022-09-20T20:54:37.956Z,3.80
2022-09-20T20:59:39.355Z,3.90
2022-09-20T21:04:41.140Z,3.85
2022-09-20T21:09:42.550Z,3.78
2022-09-20T21:14:44.573Z,3.40
2022-09-20T21:19:45.980Z,3.90
2022-09-20T21:24:47.377Z,3.25
2022-09-20T21:29:48.817Z,4.18
2022-09-20T21:34:50.237Z,3.78
2022-09-20T21:39:51.706Z,3.10
2022-09-20T21:44:53.146Z,3.60
2022-09-20T21:49:54.968Z,3.80
2022-09-20T21:54:56.362Z,3.90
2022-09-20T21:59:57.755Z,3.50
2022-09-20T22:04:59.139Z,3.22
2022-09-20T22:10:00.531Z,3.17
2022-09-20T22:15:01.947Z,3.65
2022-09-20T22:20:04.372Z,3.30
2022-09-20T22:25:06.273Z,3.58
2022-09-20T22:30:08.376Z,3.63
2022-09-20T22:35:10.184Z,3.50
2022-09-20T22:40:11.724Z,3.63
2022-09-20T22:45:13.312Z,3.75
2022-09-20T22:50:14.821Z,3.60
2022-09-20T22:55:16.265Z,3.17
2022-09-20T23:00:17.756Z,3.38
2022-09-20T23:05:19.224Z,3.33
2022-09-20T23:10:20.675Z,3.25
2022-09-20T23:15:22.147Z,3.08
2022-09-20T23:20:23.544Z,3.45
2022-09-20T23:25:24.959Z,3.40
2022-09-20T23:30:26.376Z,3.10
2022-09-20T23:35:27.820Z,3.78
2022-09-20T23:40:29.628Z,3.50
2022-09-20T23:45:31.147Z,3.10
2022-09-20T23:50:32.684Z,3.60
2022-09-20T23:55:34.192Z,3.75
